createdAt,value
2022-09-20T00:02:23.712Z,99444.38
2022-09-20T00:04:50.235Z,99442.69
2022-09-20T00:07:16.807Z,99449.41
2022-09-20T00:09:43.350Z,99446.88
2022-09-20T00:12:09.898Z,99446.28
2022-09-20T00:14:36.445Z,99441.34
2022-09-20T00:17:04.519Z,99444.75
2022-09-20T00:19:31.055Z,99450.41
2022-09-20T00:21:57.575Z,99452.97
2022-09-20T00:24:25.351Z,99458.75
2022-09-20T00:26:52.143Z,99451.94
2022-09-20T00:29:18.683Z,99445.91
2022-09-20T00:31:45.332Z,99448.78
2022-09-20T00:34:13.358Z,99449.09
2022-09-20T00:36:39.892Z,99442.06
2022-09-20T00:39:06.458Z,99449.56
2022-09-20T00:41:33.562Z,99452.59
2022-09-20T00:44:00.153Z,99451.81
2022-09-20T00:46:32.188Z,99454.53
2022-09-20T00:49:06.193Z,99454.22
2022-09-20T00:51:38.702Z,99452.78
2022-09-20T00:54:09.144Z,99448.97
2022-09-20T00:56:39.772Z,99451.88
2022-09-20T00:59:11.109Z,99445.94
2022-09-20T01:01:37.932Z,99448.66
2022-09-20T01:04:04.894Z,99452.19
2022-09-20T01:06:34.400Z,99451.19
2022-09-20T01:09:05.222Z,99448.78
2022-09-20T01:11:31.973Z,99447.50
2022-09-20T01:13:58.477Z,99450.22
2022-09-20T01:16:26.959Z,99448.59
2022-09-20T01:18:57.131Z,99443.97
2022-09-20T01:21:24.855Z,99447.81
2022-09-20T01:24:00.203Z,99457.25
2022-09-20T01:26:41.589Z,99440.78
2022-09-20T01:29:25.886Z,99439.34
2022-09-20T01:31:55.082Z,99443.19
2022-09-20T01:34:28.907Z,99447.16
2022-09-20T01:37:06.352Z,99438.56
2022-09-20T01:39:41.466Z,99445.41
2022-09-20T01:42:10.448Z,99439.16
2022-09-20T01:44:46.774Z,99437.38
2022-09-20T01:47:26.180Z,99441.22
2022-09-20T01:50:01.971Z,99442.72
2022-09-20T01:52:51.030Z,99443.97
2022-09-20T01:55:37.879Z,99450.47
2022-09-20T01:58:39.443Z,99456.63
2022-09-20T02:01:34.704Z,99448.91
2022-09-20T02:04:34.519Z,99450.44
2022-09-20T02:07:20.305Z,99451.97
2022-09-20T02:10:08.009Z,99450.16
2022-09-20T02:12:53.956Z,99450.47
2022-09-20T02:15:44.826Z,99449.06
2022-09-20T02:18:28.881Z,99452.50
2022-09-20T02:21:03.103Z,99452.41
2022-09-20T02:23:40.520Z,99450.63
2022-09-20T02:26:24.676Z,99454.13
2022-09-20T02:29:01.844Z,99453.13
2022-09-20T02:31:44.417Z,99461.06
2022-09-20T02:34:32.826Z,99456.31
2022-09-20T02:37:15.600Z,99452.63
2022-09-20T02:39:48.897Z,99457.53
2022-09-20T02:42:18.688Z,99463.25
2022-09-20T02:45:03.801Z,99451.63
2022-09-20T02:47:35.236Z,99449.72
2022-09-20T02:50:28.783Z,99453.22
2022-09-20T02:53:08.426Z,99453.22
2022-09-20T02:55:42.005Z,99447.00
2022-09-20T02:58:23.839Z,99462.16
2022-09-20T03:00:57.650Z,99458.13
2022-09-20T03:03:36.719Z,99458.94
2022-09-20T03:06:11.146Z,99462.66
2022-09-20T03:08:51.453Z,99459.38
2022-09-20T03:11:27.763Z,99472.59
2022-09-20T03:14:10.513Z,99474.53
2022-09-20T03:16:52.491Z,99473.38
2022-09-20T03:19:32.356Z,99477.13
2022-09-20T03:22:12.061Z,99476.81
2022-09-20T03:24:48.812Z,99479.41
2022-09-20T03:27:23.946Z,99477.81
2022-09-20T03:30:03.726Z,99478.31
2022-09-20T03:32:43.892Z,99480.13
2022-09-20T03:35:26.723Z,99476.00
2022-09-20T03:38:06.519Z,99473.78
2022-09-20T03:41:05.247Z,99467.88
2022-09-20T03:43:50.202Z,99468.66
2022-09-20T03:46:19.461Z,99466.75
2022-09-20T03:49:12.325Z,99464.69
2022-09-20T03:51:47.969Z,99457.84
2022-09-20T03:54:48.952Z,99471.38
2022-09-20T03:57:57.456Z,99470.78
2022-09-20T04:00:36.840Z,99460.25
2022-09-20T04:03:20.704Z,99465.38
2022-09-20T04:06:10.903Z,99465.66
2022-09-20T04:09:04.739Z,99471.59
2022-09-20T04:11:41.984Z,99470.78
2022-09-20T04:14:15.905Z,99468.88
2022-09-20T04:16:49.458Z,99467.78
2022-09-20T04:19:28.547Z,99466.69
2022-09-20T04:22:00.635Z,99465.06
2022-09-20T04:24:40.535Z,99471.59
2022-09-20T04:27:16.856Z,99479.13
2022-09-20T04:29:47.391Z,99480.22
2022-09-20T04:32:19.395Z,99475.91
2022-09-20T04:34:51.413Z,99481.63
2022-09-20T04:37:27.220Z,99482.94
2022-09-20T04:40:04.320Z,99486.13
2022-09-20T04:42:56.447Z,99481.03
2022-09-20T04:45:59.235Z,99483.13
2022-09-20T04:49:06.515Z,99490.16
2022-09-20T04:52:03.058Z,99492.88
2022-09-20T04:55:02.316Z,99492.06
2022-09-20T04:58:07.112Z,99492.56
2022-09-20T05:00:50.947Z,99497.19
2022-09-20T05:03:45.927Z,99489.34
2022-09-20T05:06:35.128Z,99493.06
2022-09-20T05:09:43.492Z,99496.09
2022-09-20T05:12:33.582Z,99498.78
2022-09-20T05:15:27.680Z,99492.28
2022-09-20T05:18:15.396Z,99499.59
2022-09-20T05:20:57.204Z,99503.91
2022-09-20T05:23:49.889Z,99502.31
2022-09-20T05:26:26.619Z,99512.56
2022-09-20T05:28:59.699Z,99508.72
2022-09-20T05:31:35.972Z,99502.69
2022-09-20T05:34:14.139Z,99508.63
2022-09-20T05:36:52.709Z,99506.44
2022-09-20T05:39:32.827Z,99511.53
2022-09-20T05:42:05.550Z,99516.06
2022-09-20T05:44:54.171Z,99525.97
2022-09-20T05:47:31.455Z,99529.81
2022-09-20T05:50:14.936Z,99525.50
2022-09-20T05:52:52.533Z,99520.38
2022-09-20T05:55:35.174Z,99537.25
2022-09-20T05:58:25.141Z,99534.13
2022-09-20T06:00:57.919Z,99535.94
2022-09-20T06:03:35.435Z,99545.16
2022-09-20T06:06:12.755Z,99545.69
2022-09-20T06:09:04.745Z,99554.41
2022-09-20T06:11:48.726Z,99557.13
2022-09-20T06:14:31.784Z,99552.00
2022-09-20T06:17:09.542Z,99558.94
2022-09-20T06:19:42.504Z,99552.59
2022-09-20T06:22:18.694Z,99558.31
2022-09-20T06:24:50.053Z,99561.84
2022-09-20T06:27:20.738Z,99556.81
2022-09-20T06:29:52.472Z,99566.56
2022-09-20T06:32:19.747Z,99554.63
2022-09-20T06:34:47.338Z,99562.84
2022-09-20T06:37:24.120Z,99561.59
2022-09-20T06:39:59.745Z,99558.28
2022-09-20T06:42:27.304Z,99562.19
2022-09-20T06:44:54.341Z,99558.16
2022-09-20T06:47:20.898Z,99563.88
2022-09-20T06:49:47.399Z,99557.28
2022-09-20T06:52:17.089Z,99572.34
2022-09-20T06:54:44.768Z,99567.91
2022-09-20T06:57:13.936Z,99570.91
2022-09-20T06:59:40.529Z,99565.81
2022-09-20T07:02:07.207Z,99570.91
2022-09-20T07:04:33.825Z,99570.00
2022-09-20T07:07:00.603Z,99560.00
2022-09-20T07:09:28.811Z,99576.16
2022-09-20T07:11:55.417Z,99567.72
2022-09-20T07:14:22.970Z,99573.50
2022-09-20T07:16:49.535Z,99575.22
2022-09-20T07:19:16.102Z,99577.38
2022-09-20T07:21:42.638Z,99577.50
2022-09-20T07:24:09.134Z,99586.56
2022-09-20T07:26:37.403Z,99589.06
2022-09-20T07:29:03.931Z,99588.66
2022-09-20T07:31:30.559Z,99589.63
2022-09-20T07:33:57.123Z,99589.94
2022-09-20T07:36:23.668Z,99590.91
2022-09-20T07:38:52.069Z,99588.38
2022-09-20T07:41:19.962Z,99589.00
2022-09-20T07:43:47.809Z,99590.47
2022-09-20T07:46:14.435Z,99589.97
2022-09-20T07:48:41.788Z,99599.88
2022-09-20T07:51:10.153Z,99596.69
2022-09-20T07:53:36.842Z,99601.69
2022-09-20T07:56:05.227Z,99598.28
2022-09-20T07:58:34.039Z,99611.13
2022-09-20T08:01:04.369Z,99612.78
2022-09-20T08:03:31.533Z,99613.63
2022-09-20T08:06:02.627Z,99617.63
2022-09-20T08:08:32.545Z,99611.22
2022-09-20T08:11:03.279Z,99614.75
2022-09-20T08:16:17.733Z,99629.22
2022-09-20T08:18:46.349Z,99630.16
2022-09-20T08:21:13.776Z,99628.38
2022-09-20T08:23:41.912Z,99632.44
2022-09-20T08:26:11.340Z,99642.69
2022-09-20T08:28:38.696Z,99637.59
2022-09-20T08:31:07.156Z,99628.91
2022-09-20T08:33:35.891Z,99634.63
2022-09-20T08:36:02.696Z,99634.78
2022-09-20T08:41:20.482Z,99641.38
2022-09-20T08:43:52.156Z,99634.63
2022-09-20T08:46:24.028Z,99639.63
2022-09-20T08:48:52.218Z,99644.72
2022-09-20T08:51:23.687Z,99640.03
2022-09-20T08:53:52.917Z,99637.00
2022-09-20T08:56:20.762Z,99648.56
2022-09-20T08:58:47.527Z,99635.94
2022-09-20T09:01:20.377Z,99633.22
2022-09-20T09:03:46.934Z,99643.41
2022-09-20T09:06:18.648Z,99641.50
2022-09-20T09:08:45.312Z,99638.16
2022-09-20T09:11:15.247Z,99641.97
2022-09-20T09:13:48.580Z,99638.56
2022-09-20T09:16:22.716Z,99643.78
2022-09-20T09:18:50.839Z,99641.09
2022-09-20T09:21:21.158Z,99649.69
2022-09-20T09:23:53.367Z,99641.97
2022-09-20T09:26:22.191Z,99641.56
2022-09-20T09:29:07.932Z,99643.66
2022-09-20T09:31:34.914Z,99639.56
2022-09-20T09:34:01.428Z,99644.34
2022-09-20T09:36:29.477Z,99643.03
2022-09-20T09:39:14.968Z,99635.78
2022-09-20T09:41:41.537Z,99642.25
2022-09-20T09:44:20.204Z,99639.75
2022-09-20T09:46:47.168Z,99639.59
2022-09-20T09:49:16.318Z,99644.31
2022-09-20T09:52:01.247Z,99643.09
2022-09-20T09:54:29.511Z,99652.84
2022-09-20T09:57:07.800Z,99660.34
2022-09-20T09:59:50.331Z,99658.19
2022-09-20T10:02:28.922Z,99663.78
2022-09-20T10:05:02.354Z,99662.50
2022-09-20T10:07:38.450Z,99659.28
2022-09-20T10:10:14.043Z,99662.81
2022-09-20T10:12:58.601Z,99662.28
2022-09-20T10:15:34.777Z,99663.72
2022-09-20T10:18:16.799Z,99651.69
2022-09-20T10:20:59.056Z,99657.41
2022-09-20T10:24:01.897Z,99643.81
2022-09-20T10:26:49.476Z,99646.91
2022-09-20T10:29:27.853Z,99636.22
2022-09-20T10:32:04.692Z,99631.53
2022-09-20T10:34:47.711Z,99639.97
2022-09-20T10:37:21.971Z,99638.41
2022-09-20T10:40:02.343Z,99635.47
2022-09-20T10:42:42.625Z,99639.38
2022-09-20T10:45:29.835Z,99642.50
2022-09-20T10:48:05.662Z,99637.44
2022-09-20T10:50:41.075Z,99634.72
2022-09-20T10:53:25.658Z,99640.34
2022-09-20T10:56:02.199Z,99647.38
2022-09-20T10:59:02.470Z,99645.34
2022-09-20T11:01:36.662Z,99640.03
2022-09-20T11:04:31.725Z,99646.41
2022-09-20T11:07:08.291Z,99645.56
2022-09-20T11:09:38.811Z,99652.03
2022-09-20T11:12:14.590Z,99643.44
2022-09-20T11:14:44.588Z,99646.16
2022-09-20T11:17:17.030Z,99644.13
2022-09-20T11:19:52.072Z,99654.38
2022-09-20T11:22:22.243Z,99649.84
2022-09-20T11:24:52.506Z,99649.75
2022-09-20T11:27:25.133Z,99652.34
2022-09-20T11:29:56.031Z,99659.34
2022-09-20T11:32:26.725Z,99657.28
2022-09-20T11:34:56.772Z,99654.19
2022-09-20T11:37:30.341Z,99654.84
2022-09-20T11:40:01.346Z,99652.69
2022-09-20T11:42:33.221Z,99661.19
2022-09-20T11:45:00.076Z,99665.88
2022-09-20T11:47:53.304Z,99661.53
2022-09-20T11:50:44.959Z,99662.81
2022-09-20T11:53:24.952Z,99654.56
2022-09-20T11:55:56.735Z,99658.56
2022-09-20T11:58:25.510Z,99655.25
2022-09-20T12:00:55.623Z,99654.03
2022-09-20T12:03:28.871Z,99644.38
2022-09-20T12:05:57.979Z,99642.50
2022-09-20T12:08:29.269Z,99645.44
2022-09-20T12:10:59.400Z,99647.03
2022-09-20T12:13:28.077Z,99647.13
2022-09-20T12:16:00.891Z,99647.16
2022-09-20T12:19:00.885Z,99646.38
2022-09-20T12:21:27.444Z,99648.94
2022-09-20T12:24:19.857Z,99640.38
2022-09-20T12:26:52.274Z,99646.84
2022-09-20T12:30:12.750Z,99646.00
2022-09-20T12:32:51.740Z,99651.16
2022-09-20T12:35:52.049Z,99641.59
2022-09-20T12:38:36.845Z,99652.16
2022-09-20T12:41:07.941Z,99651.72
2022-09-20T12:43:37.330Z,99643.63
2022-09-20T12:46:08.671Z,99646.13
2022-09-20T12:48:39.484Z,99643.97
2022-09-20T12:51:19.493Z,99656.44
2022-09-20T12:54:00.144Z,99642.03
2022-09-20T12:56:27.313Z,99641.00
2022-09-20T12:58:56.581Z,99646.63
2022-09-20T13:01:34.029Z,99640.63
2022-09-20T13:04:52.737Z,99643.53
2022-09-20T13:07:51.876Z,99635.00
2022-09-20T13:10:24.652Z,99629.63
2022-09-20T13:12:56.093Z,99633.91
2022-09-20T13:15:22.780Z,99627.16
2022-09-20T13:17:53.867Z,99626.84
2022-09-20T13:20:24.290Z,99629.56
2022-09-20T13:22:55.072Z,99622.91
2022-09-20T13:25:25.299Z,99626.19
2022-09-20T13:28:03.210Z,99627.69
2022-09-20T13:30:30.459Z,99628.59
2022-09-20T13:32:56.964Z,99622.38
2022-09-20T13:35:25.806Z,99629.94
2022-09-20T13:37:55.787Z,99632.94
2022-09-20T13:40:25.815Z,99623.00
2022-09-20T13:43:12.946Z,99630.47
2022-09-20T13:45:42.234Z,99630.44
2022-09-20T13:48:09.291Z,99633.91
2022-09-20T13:50:36.027Z,99636.66
2022-09-20T13:53:33.291Z,99634.31
2022-09-20T13:56:09.023Z,99628.94
2022-09-20T13:58:36.022Z,99629.72
2022-09-20T14:01:04.987Z,99632.03
2022-09-20T14:03:34.731Z,99642.44
2022-09-20T14:06:04.194Z,99627.00
2022-09-20T14:08:35.756Z,99635.78
2022-09-20T14:11:06.919Z,99621.81
2022-09-20T14:13:38.775Z,99629.75
2022-09-20T14:16:06.878Z,99634.84
2022-09-20T14:18:35.183Z,99635.00
2022-09-20T14:21:02.520Z,99638.31
2022-09-20T14:23:30.256Z,99645.44
2022-09-20T14:26:20.598Z,99627.84
2022-09-20T14:28:47.152Z,99630.09
2022-09-20T14:31:17.912Z,99631.97
2022-09-20T14:33:46.824Z,99631.66
2022-09-20T14:36:14.643Z,99639.69
2022-09-20T14:38:44.314Z,99630.66
2022-09-20T14:41:13.246Z,99635.78
2022-09-20T14:43:41.184Z,99630.53
2022-09-20T14:46:15.247Z,99620.34
2022-09-20T14:48:42.194Z,99622.31
2022-09-20T14:51:23.383Z,99635.16
2022-09-20T14:53:51.797Z,99638.75
2022-09-20T14:56:34.119Z,99641.91
2022-09-20T14:59:05.805Z,99643.69
2022-09-20T15:01:32.945Z,99643.47
2022-09-20T15:04:05.498Z,99648.28
2022-09-20T15:06:35.015Z,99656.25
2022-09-20T15:09:01.665Z,99654.88
2022-09-20T15:11:29.571Z,99656.97
2022-09-20T15:13:56.213Z,99647.75
2022-09-20T15:16:22.880Z,99651.63
2022-09-20T15:18:49.566Z,99651.25
2022-09-20T15:21:16.063Z,99651.25
2022-09-20T15:23:42.605Z,99657.31
2022-09-20T15:26:11.757Z,99663.06
2022-09-20T15:28:39.723Z,99659.13
2022-09-20T15:31:06.767Z,99663.97
2022-09-20T15:33:33.642Z,99666.84
2022-09-20T15:36:02.259Z,99674.69
2022-09-20T15:38:28.911Z,99681.25
2022-09-20T15:40:55.448Z,99676.91
2022-09-20T15:43:23.903Z,99676.91
2022-09-20T15:45:53.192Z,99687.13
2022-09-20T15:48:21.229Z,99682.59
2022-09-20T15:50:59.842Z,99682.00
2022-09-20T15:53:26.349Z,99687.78
2022-09-20T15:55:52.978Z,99686.38
2022-09-20T15:58:19.461Z,99676.00
2022-09-20T16:00:46.036Z,99679.81
2022-09-20T16:03:13.954Z,99683.78
2022-09-20T16:05:40.452Z,99685.28
2022-09-20T16:08:06.977Z,99691.38
2022-09-20T16:10:33.518Z,99681.34
2022-09-20T16:13:00.227Z,99685.94
2022-09-20T16:15:26.724Z,99693.84
2022-09-20T16:17:53.252Z,99686.66
2022-09-20T16:20:21.555Z,99688.72
2022-09-20T16:22:48.081Z,99695.78
2022-09-20T16:25:14.724Z,99687.81
2022-09-20T16:27:41.461Z,99688.16
2022-09-20T16:30:09.003Z,99697.97
2022-09-20T16:32:35.526Z,99693.88
2022-09-20T16:35:02.044Z,99698.88
2022-09-20T16:37:29.934Z,99698.09
2022-09-20T16:39:56.481Z,99698.53
2022-09-20T16:42:23.114Z,99712.06
2022-09-20T16:44:49.640Z,99712.88
2022-09-20T16:47:16.651Z,99719.16
2022-09-20T16:49:43.142Z,99716.59
2022-09-20T16:52:10.673Z,99716.47
2022-09-20T16:54:38.550Z,99715.88
2022-09-20T16:57:05.495Z,99720.41
2022-09-20T16:59:32.061Z,99722.69
2022-09-20T17:01:58.583Z,99726.91
2022-09-20T17:04:25.160Z,99732.19
2022-09-20T17:06:52.338Z,99739.06
2022-09-20T17:09:19.153Z,99736.72
2022-09-20T17:11:48.536Z,99740.06
2022-09-20T17:14:16.419Z,99744.78
2022-09-20T17:16:43.661Z,99741.72
2022-09-20T17:19:12.003Z,99745.97
2022-09-20T17:21:40.242Z,99750.69
2022-09-20T17:24:07.597Z,99746.38
2022-09-20T17:26:36.004Z,99748.16
2022-09-20T17:29:05.917Z,99744.84
2022-09-20T17:31:34.912Z,99751.28
2022-09-20T17:34:02.124Z,99759.00
2022-09-20T17:36:30.767Z,99757.28
2022-09-20T17:39:03.601Z,99755.47
2022-09-20T17:41:31.364Z,99768.78
2022-09-20T17:43:59.523Z,99772.31
2022-09-20T17:46:29.449Z,99776.28
2022-09-20T17:48:57.579Z,99778.81
2022-09-20T17:51:26.891Z,99781.81
2022-09-20T17:53:53.669Z,99782.72
2022-09-20T17:56:20.173Z,99790.19
2022-09-20T17:58:46.722Z,99795.63
2022-09-20T18:01:15.393Z,99795.28
2022-09-20T18:03:45.062Z,99797.16
2022-09-20T18:06:13.586Z,99808.00
2022-09-20T18:08:40.445Z,99800.38
2022-09-20T18:11:06.967Z,99805.75
2022-09-20T18:13:33.598Z,99813.34
2022-09-20T18:16:00.203Z,99806.75
2022-09-20T18:18:26.820Z,99813.22
2022-09-20T18:20:54.798Z,99814.25
2022-09-20T18:23:21.293Z,99814.06
2022-09-20T18:25:47.955Z,99816.28
2022-09-20T18:28:14.465Z,99818.31
2022-09-20T18:30:41.019Z,99818.75
2022-09-20T18:33:07.573Z,99815.53
2022-09-20T18:35:34.093Z,99819.78
2022-09-20T18:38:02.083Z,99834.47
2022-09-20T18:40:28.676Z,99837.78
2022-09-20T18:42:55.314Z,99836.09
2022-09-20T18:45:21.866Z,99834.47
2022-09-20T18:47:48.371Z,99836.59
2022-09-20T18:50:14.967Z,99841.22
2022-09-20T18:52:41.473Z,99845.34
2022-09-20T18:55:10.441Z,99847.06
2022-09-20T18:57:37.389Z,99849.38
2022-09-20T19:00:05.244Z,99848.88
2022-09-20T19:02:50.776Z,99851.41
2022-09-20T19:05:32.230Z,99848.41
2022-09-20T19:08:12.962Z,99847.78
2022-09-20T19:10:47.656Z,99848.69
2022-09-20T19:13:26.575Z,99850.22
2022-09-20T19:16:09.493Z,99856.84
2022-09-20T19:18:54.862Z,99851.22
2022-09-20T19:21:28.044Z,99860.47
2022-09-20T19:24:08.994Z,99856.63
2022-09-20T19:26:37.417Z,99859.47
2022-09-20T19:29:16.717Z,99860.28
2022-09-20T19:31:43.806Z,99867.31
2022-09-20T19:34:16.345Z,99873.06
2022-09-20T19:36:53.164Z,99866.00
2022-09-20T19:39:26.935Z,99881.41
2022-09-20T19:42:02.058Z,99881.09
2022-09-20T19:44:39.979Z,99874.69
2022-09-20T19:47:20.378Z,99882.81
2022-09-20T19:49:53.346Z,99881.00
2022-09-20T19:52:20.437Z,99881.50
2022-09-20T19:54:47.616Z,99886.66
2022-09-20T19:57:20.304Z,99886.66
2022-09-20T19:59:48.017Z,99887.25
2022-09-20T20:02:15.306Z,99892.38
2022-09-20T20:04:42.431Z,99896.50
2022-09-20T20:07:24.524Z,99897.59
2022-09-20T20:09:59.018Z,99898.13
2022-09-20T20:12:34.040Z,99894.69
2022-09-20T20:15:08.038Z,99901.75
2022-09-20T20:17:44.370Z,99902.03
2022-09-20T20:20:18.157Z,99905.88
2022-09-20T20:23:07.182Z,99906.16
2022-09-20T20:25:41.345Z,99909.78
2022-09-20T20:28:10.045Z,99904.94
2022-09-20T20:30:36.536Z,99907.97
2022-09-20T20:33:03.101Z,99909.66
2022-09-20T20:35:29.635Z,99906.75
2022-09-20T20:37:56.144Z,99915.47
2022-09-20T20:40:25.011Z,99915.28
2022-09-20T20:42:55.751Z,99917.09
2022-09-20T20:45:23.761Z,99918.25
2022-09-20T20:47:55.927Z,99924.88
2022-09-20T20:50:22.535Z,99929.00
2022-09-20T20:52:51.752Z,99923.66
2022-09-20T20:55:18.405Z,99930.25
2022-09-20T20:57:44.941Z,99933.34
2022-09-20T21:00:12.530Z,99927.50
2022-09-20T21:02:40.432Z,99930.84
2022-09-20T21:05:07.768Z,99929.63
2022-09-20T21:07:34.247Z,99928.66
2022-09-20T21:10:01.189Z,99935.25
2022-09-20T21:12:27.794Z,99947.38
2022-09-20T21:14:54.319Z,99941.19
2022-09-20T21:17:20.814Z,99945.00
2022-09-20T21:19:48.681Z,99945.63
2022-09-20T21:22:15.219Z,99948.16
2022-09-20T21:24:41.737Z,99953.63
2022-09-20T21:27:08.362Z,99953.69
2022-09-20T21:29:34.859Z,99948.91
2022-09-20T21:32:01.859Z,99956.06
2022-09-20T21:34:28.353Z,99965.28
2022-09-20T21:36:56.345Z,99966.44
2022-09-20T21:39:22.860Z,99964.31
2022-09-20T21:41:49.405Z,99968.66
2022-09-20T21:44:15.893Z,99960.28
2022-09-20T21:46:42.435Z,99961.38
2022-09-20T21:49:10.262Z,99961.38
2022-09-20T21:51:37.728Z,99967.94
2022-09-20T21:54:05.976Z,99971.22
2022-09-20T21:56:34.398Z,99974.22
2022-09-20T21:59:00.907Z,99969.06
2022-09-20T22:01:28.987Z,99976.69
2022-09-20T22:03:57.043Z,99973.50
2022-09-20T22:06:25.446Z,99963.88
2022-09-20T22:08:54.182Z,99973.38
2022-09-20T22:11:22.483Z,99979.34
2022-09-20T22:13:50.912Z,99978.03
2022-09-20T22:16:19.635Z,99981.59
2022-09-20T22:18:46.784Z,99973.00
2022-09-20T22:21:15.324Z,99976.03
2022-09-20T22:23:42.688Z,99981.75
2022-09-20T22:26:11.342Z,99978.28
2022-09-20T22:28:39.603Z,99973.72
2022-09-20T22:31:08.612Z,99978.38
2022-09-20T22:33:36.237Z,99979.19
2022-09-20T22:36:03.261Z,99973.56
2022-09-20T22:38:31.053Z,99977.69
2022-09-20T22:40:58.553Z,99983.34
2022-09-20T22:43:25.422Z,99978.78
2022-09-20T22:45:53.645Z,99983.69
2022-09-20T22:48:20.296Z,99983.16
2022-09-20T22:50:46.844Z,99982.94
2022-09-20T22:53:13.386Z,99983.22
2022-09-20T22:55:39.869Z,99983.22
2022-09-20T22:58:06.571Z,99984.34
2022-09-20T23:00:33.090Z,99987.06
2022-09-20T23:03:01.069Z,99981.41
2022-09-20T23:05:27.589Z,99983.84
2022-09-20T23:07:54.200Z,99982.78
2022-09-20T23:10:20.762Z,99985.47
2022-09-20T23:12:50.180Z,99986.06
2022-09-20T23:15:17.271Z,99983.31
2022-09-20T23:17:43.768Z,99988.78
2022-09-20T23:20:11.773Z,99982.06
2022-09-20T23:22:38.276Z,99989.34
2022-09-20T23:25:05.667Z,99985.03
2022-09-20T23:27:32.160Z,99993.69
2022-09-20T23:29:58.771Z,99994.78
2022-09-20T23:32:25.276Z,99987.00
2022-09-20T23:34:51.871Z,99984.03
2022-09-20T23:37:19.722Z,99984.56
2022-09-20T23:39:46.254Z,99983.78
2022-09-20T23:42:12.870Z,99988.09
2022-09-20T23:44:39.372Z,99988.38
2022-09-20T23:47:05.998Z,99991.38
2022-09-20T23:49:32.491Z,99988.41
2022-09-20T23:51:59.030Z,99995.94
2022-09-20T23:54:26.880Z,99993.53
2022-09-20T23:56:53.495Z,100001.13
2022-09-20T23:59:20.094Z,100000.28
